Time;durP1;ratioP1;P1;durP2;ratioP2;P2;SDS_P1;SDS_P2;PMS_P1;PMS_P2;Temp;Humidity;BMP_temperature;BMP_pressure;BME280_temperature;BME280_humidity;BME280_pressure;Samples;Min_cycle;Max_cycle;Signal;HPM_P1;HPM_P2
2023/04/23 00:02:32;;;;;;;;;;;;;;;8.69;62.39;98054.13;103587;1324;22606;-86
2023/04/23 00:13:38;;;;;;;;;;;;;;;;;;;;;
2023/04/23 00:17:21;;;;;;;;;;;;;;;8.24;63.80;98049.83;105375;1304;122970;-86
2023/04/23 00:20:22;;;;;;;;;;;;;;;;;;;;;
2023/04/23 00:24:15;;;;;;;;;;;;;;;8.15;63.85;98048.55;101463;1297;5473045;-84
2023/04/23 00:27:44;;;;;;;;;;;;;;;8.09;64.41;98045.84;105552;1300;22526;-84
2023/04/23 00:34:37;;;;;;;;;;;;;;;8.00;64.58;98052.70;104458;1316;22572;-86
2023/04/23 00:45:32;;;;;;;;;;;;;;;7.93;64.55;98045.39;103816;1305;544809;-89
2023/04/23 00:55:55;;;;;;;;;;;;;;;7.84;64.11;98045.40;104441;1300;25493;-85
2023/04/23 01:06:49;;;;;;;;;;;;;;;7.80;63.45;98040.88;103824;1299;547215;-87
2023/04/23 01:10:17;;;;;;;;;;;;;;;7.78;63.73;98037.08;105410;1305;24261;-86
2023/04/23 01:17:12;;;;;;;;;;;;;;;7.77;63.43;98042.08;105234;1293;22581;-86
2023/04/23 01:20:38;;;;;;;;;;;;;;;7.76;64.11;98044.80;100589;1308;5461351;-84
2023/04/23 01:24:04;;;;;;;;;;;;;;;7.68;65.43;98039.54;104424;1317;123853;-89
2023/04/23 01:31:19;;;;;;;;;;;;;;;;;;;;;
2023/04/23 01:39:05;;;;;;;;;;;;;;;7.50;66.35;98046.06;103954;1304;547019;-86
2023/04/23 01:46:00;;;;;;;;;;;;;;;7.17;67.50;98052.20;104858;1309;23901;-88
2023/04/23 02:00:30;;;;;;;;;;;;;;;7.04;67.64;98051.77;103644;1305;544909;-84
2023/04/23 02:03:58;;;;;;;;;;;;;;;6.99;67.96;98053.77;105933;1301;23870;-87
2023/04/23 02:07:26;;;;;;;;;;;;;;;6.95;68.41;98055.86;105797;1303;123814;-86
2023/04/23 02:10:52;;;;;;;;;;;;;;;6.92;68.17;98055.70;105525;1298;22537;-87
2023/04/23 02:25:06;;;;;;;;;;;;;;;6.89;68.16;98047.54;103543;1312;544424;-90
2023/04/23 02:28:34;;;;;;;;;;;;;;;6.85;68.33;98045.55;105901;1303;22540;-84
2023/04/23 02:34:56;;;;;;;;;;;;;;;;;;;;;
2023/04/23 02:38:49;;;;;;;;;;;;;;;6.70;69.42;98037.08;99035;1333;5523064;-84
2023/04/23 02:46:16;;;;;;;;;;;;;;;6.65;69.31;98037.95;103815;1305;546864;-85
2023/04/23 02:53:09;;;;;;;;;;;;;;;6.61;69.15;98038.79;104343;1321;22590;-85
2023/04/23 02:56:36;;;;;;;;;;;;;;;6.61;68.81;98037.72;103839;1322;22580;-84
2023/04/23 03:07:30;;;;;;;;;;;;;;;6.61;69.16;98040.71;103694;1308;545223;-88
2023/04/23 03:10:57;;;;;;;;;;;;;;;6.57;69.42;98036.97;106620;1307;22543;-85
2023/04/23 03:14:23;;;;;;;;;;;;;;;6.56;69.45;98036.50;104680;1314;22568;-83
2023/04/23 03:17:51;;;;;;;;;;;;;;;6.54;69.32;98037.42;104112;1299;23420;-83
2023/04/23 03:35:42;;;;;;;;;;;;;;;6.42;70.07;98044.23;104949;1310;25182;-85
2023/04/23 03:39:09;;;;;;;;;;;;;;;6.42;69.93;98043.34;104508;1316;22660;-83
2023/04/23 03:42:34;;;;;;;;;;;;;;;6.42;69.67;98038.73;100296;1319;5505196;-85
2023/04/23 03:46:00;;;;;;;;;;;;;;;6.42;69.62;98041.00;104051;1324;22558;-83
2023/04/23 03:53:24;;;;;;;;;;;;;;;6.47;69.82;98033.81;103928;1312;557167;-86
2023/04/23 03:57:15;;;;;;;;;;;;;;;6.47;69.57;98039.02;106060;1301;22639;-83
2023/04/23 04:04:11;;;;;;;;;;;;;;;6.52;69.69;98038.17;104633;1299;22572;-84
2023/04/23 04:11:04;;;;;;;;;;;;;;;6.58;69.61;98037.45;103268;1326;22585;-83
2023/04/23 04:18:32;;;;;;;;;;;;;;;6.61;70.79;98041.13;103798;1304;548960;-84
2023/04/23 04:22:01;;;;;;;;;;;;;;;6.56;70.85;98042.78;105562;1304;22688;-83
2023/04/23 04:29:29;;;;;;;;;;;;;;;6.60;71.60;98047.37;103933;1305;546411;-83
2023/04/23 04:33:00;;;;;;;;;;;;;;;6.60;71.57;98044.40;105494;1306;24365;-88
2023/04/23 04:39:53;;;;;;;;;;;;;;;6.72;71.26;98054.12;104907;1300;22583;-87
2023/04/23 04:43:19;;;;;;;;;;;;;;;6.78;71.89;98058.70;100394;1319;5477001;-84
2023/04/23 04:49:47;;;;;;;;;;;;;;;6.90;71.95;98061.22;102787;1317;123555;-83
2023/04/23 04:54:14;;;;;;;;;;;;;;;6.98;72.08;98061.58;103902;1305;545045;-87
2023/04/23 05:01:12;;;;;;;;;;;;;;;7.07;72.18;98061.52;104318;1321;125220;-84
2023/04/23 05:12:06;;;;;;;;;;;;;;;7.22;74.30;98066.69;104023;1304;545289;-90
2023/04/23 05:22:27;;;;;;;;;;;;;;;7.28;75.56;98059.30;104277;1299;22961;-86
2023/04/23 05:25:57;;;;;;;;;;;;;;;7.30;76.23;98060.31;100033;1315;5462776;-84
2023/04/23 05:32:48;;;;;;;;;;;;;;;7.40;76.61;98059.03;103903;1305;22583;-85
2023/04/23 05:40:17;;;;;;;;;;;;;;;7.57;76.89;98060.85;103903;1322;545059;-84
2023/04/23 05:43:46;;;;;;;;;;;;;;;7.67;76.51;98064.81;106280;1297;123556;-84
2023/04/23 05:46:58;;;;;;;;;;;;;;;;;;;;;
2023/04/23 05:50:28;;;;;;;;;;;;;;;;;;;;;
2023/04/23 06:09:13;;;;;;;;;;;;;;;;;;;;;
2023/04/23 06:12:59;;;;;;;;;;;;;;;8.94;74.16;98057.70;106520;1292;123603;-83
2023/04/23 06:16:28;;;;;;;;;;;;;;;9.12;73.95;98058.58;106140;1300;22598;-85
2023/04/23 06:23:35;;;;;;;;;;;;;;;9.52;73.66;98057.97;100995;1299;6176633;-84
2023/04/23 06:30:30;;;;;;;;;;;;;;;9.97;72.62;98062.11;104052;1317;22568;-87
2023/04/23 06:33:58;;;;;;;;;;;;;;;10.20;72.64;98059.92;103506;1328;24271;-84
2023/04/23 06:41:20;;;;;;;;;;;;;;;10.61;70.72;98058.04;103965;1319;544609;-90
2023/04/23 06:44:18;;;;;;;;;;;;;;;10.75;69.71;98055.86;106818;1292;124299;-86
2023/04/23 06:48:21;;;;;;;;;;;;;;;10.86;68.59;98051.13;106864;1294;25525;-88
2023/04/23 06:51:48;;;;;;;;;;;;;;;10.99;68.29;98052.98;106792;1275;24249;-89
2023/04/23 06:58:29;;;;;;;;;;;;;;;;;;;;;
2023/04/23 07:02:24;;;;;;;;;;;;;;;11.31;65.54;98046.79;104771;1298;124988;-84
2023/04/23 07:20:36;;;;;;;;;;;;;;;12.31;62.75;98043.31;104929;1310;123254;-91
2023/04/23 07:27:33;;;;;;;;;;;;;;;12.65;62.52;98040.90;100357;1316;5470294;-86
2023/04/23 07:30:59;;;;;;;;;;;;;;;12.82;61.47;98039.96;104107;1318;123520;-86
2023/04/23 07:34:26;;;;;;;;;;;;;;;12.98;59.49;98032.67;103389;1311;22743;-88
2023/04/23 07:37:22;;;;;;;;;;;;;;;13.14;58.79;98034.50;103206;1329;123155;-89
2023/04/23 07:44:15;;;;;;;;;;;;;;;13.51;58.04;98035.35;102892;1317;123254;-92
2023/04/23 07:52:04;;;;;;;;;;;;;;;13.95;57.97;98031.02;103978;1306;544424;-88
2023/04/23 07:55:32;;;;;;;;;;;;;;;14.15;56.74;98027.08;106109;1302;123456;-85
2023/04/23 07:59:01;;;;;;;;;;;;;;;14.36;56.36;98021.90;105188;1310;22562;-85
2023/04/23 08:06:34;;;;;;;;;;;;;;;14.82;55.47;98013.54;104178;1304;545282;-84
2023/04/23 08:10:02;;;;;;;;;;;;;;;15.05;54.97;98010.41;105752;1298;22537;-87
2023/04/23 08:16:55;;;;;;;;;;;;;;;15.51;53.46;98004.39;105228;1292;23430;-87
2023/04/23 08:20:06;;;;;;;;;;;;;;;;;;;;;
2023/04/23 08:23:49;;;;;;;;;;;;;;;16.01;52.44;98000.35;104056;1322;22553;-85
2023/04/23 08:27:14;;;;;;;;;;;;;;;16.26;51.56;97999.95;103826;1304;123120;-89
2023/04/23 08:30:41;;;;;;;;;;;;;;;16.51;50.96;97988.98;103701;1328;22622;-90
2023/04/23 08:45:07;;;;;;;;;;;;;;;17.57;46.18;97978.60;105773;1299;122903;-87
2023/04/23 08:52:02;;;;;;;;;;;;;;;18.01;45.94;97966.39;99894;1320;5557672;-88
2023/04/23 08:55:31;;;;;;;;;;;;;;;18.23;44.82;97962.79;103558;1318;123547;-89
2023/04/23 08:58:57;;;;;;;;;;;;;;;18.43;43.39;97954.24;103187;1314;22612;-90
2023/04/23 09:02:17;;;;;;;;;;;;;;;18.67;43.68;97950.12;102623;1330;124779;-86
2023/04/23 09:08:57;;;;;;;;;;;;;;;;;;;;;
2023/04/23 09:12:40;;;;;;;;;;;;;;;19.29;40.57;97938.63;106659;1288;22605;-90
2023/04/23 09:16:10;;;;;;;;;;;;;;;19.50;39.50;97940.30;106638;1291;22521;-88
2023/04/23 09:18:56;;;;;;;;;;;;;;;;;;;;;
2023/04/23 09:22:27;;;;;;;;;;;;;;;19.87;39.73;97933.16;102518;1292;5444074;-90
2023/04/23 09:25:54;;;;;;;;;;;;;;;;;;;;;
2023/04/23 09:29:31;;;;;;;;;;;;;;;;;;;;;
2023/04/23 09:32:52;;;;;;;;;;;;;;;;;;;;;
2023/04/23 09:36:12;;;;;;;;;;;;;;;;;;;;;
2023/04/23 09:43:30;;;;;;;;;;;;;;;20.72;36.87;97912.58;103962;1301;544248;-89
2023/04/23 09:46:41;;;;;;;;;;;;;;;;;;;;;
2023/04/23 09:49:44;;;;;;;;;;;;;;;;;;;;;
2023/04/23 09:57:19;;;;;;;;;;;;;;;;;;;;;
2023/04/23 10:04:25;;;;;;;;;;;;;;;;;;;;;
2023/04/23 10:07:55;;;;;;;;;;;;;;;22.22;35.70;97882.68;105471;1300;123427;-86
2023/04/23 10:11:06;;;;;;;;;;;;;;;22.38;35.01;97871.45;104738;1316;26264;-86
2023/04/23 10:14:58;;;;;;;;;;;;;;;22.34;34.23;97869.39;104367;1320;123378;-86
2023/04/23 10:17:51;;;;;;;;;;;;;;;;;;;;;
2023/04/23 10:21:05;;;;;;;;;;;;;;;;;;;;;
2023/04/23 10:28:31;;;;;;;;;;;;;;;;;;;;;
2023/04/23 10:31:31;;;;;;;;;;;;;;;;;;;;;
2023/04/23 10:35:11;;;;;;;;;;;;;;;;;;;;;
2023/04/23 10:38:31;;;;;;;;;;;;;;;;;;;;;
2023/04/23 10:41:59;;;;;;;;;;;;;;;;;;;;;
2023/04/23 10:45:11;;;;;;;;;;;;;;;;;;;;;
2023/04/23 10:48:56;;;;;;;;;;;;;;;21.86;31.35;97840.95;106215;1298;22900;-88
2023/04/23 10:52:24;;;;;;;;;;;;;;;21.72;31.96;97840.30;106187;1290;24383;-86
2023/04/23 10:55:54;;;;;;;;;;;;;;;21.77;32.01;97837.50;105574;1304;123414;-86
2023/04/23 10:58:49;;;;;;;;;;;;;;;22.17;32.00;97832.11;105202;1290;23405;-85
2023/04/23 11:02:35;;;;;;;;;;;;;;;22.65;32.49;97831.71;105393;1309;123279;-85
2023/04/23 11:05:22;;;;;;;;;;;;;;;;;;;;;
2023/04/23 11:08:35;;;;;;;;;;;;;;;;;;;;;
2023/04/23 11:12:29;;;;;;;;;;;;;;;23.68;28.30;97831.18;104656;1315;22598;-87
2023/04/23 11:15:55;;;;;;;;;;;;;;;23.88;28.16;97823.11;105076;1315;123562;-87
2023/04/23 11:18:55;;;;;;;;;;;;;;;;;;;;;
2023/04/23 11:22:20;;;;;;;;;;;;;;;;;;;;;
2023/04/23 11:29:50;;;;;;;;;;;;;;;23.40;30.51;97814.54;103941;1307;25344;-86
2023/04/23 11:32:39;;;;;;;;;;;;;;;;;;;;;
2023/04/23 11:35:49;;;;;;;;;;;;;;;;;;;;;
2023/04/23 11:39:40;;;;;;;;;;;;;;;24.27;28.63;97800.05;103253;1321;123387;-88
2023/04/23 11:43:07;;;;;;;;;;;;;;;24.28;28.89;97799.61;103400;1325;22610;-86
2023/04/23 11:45:58;;;;;;;;;;;;;;;;;;;;;
2023/04/23 11:49:09;;;;;;;;;;;;;;;23.67;29.18;97799.87;103718;1311;123564;-87
2023/04/23 11:52:31;;;;;;;;;;;;;;;23.79;29.60;97792.77;103906;1321;22582;-86
2023/04/23 11:55:55;;;;;;;;;;;;;;;;;;;;;
2023/04/23 11:58:56;;;;;;;;;;;;;;;;;;;;;
2023/04/23 12:02:07;;;;;;;;;;;;;;;;;;;;;
2023/04/23 12:05:26;;;;;;;;;;;;;;;24.53;28.99;97792.15;104170;1318;24377;-87
2023/04/23 12:08:46;;;;;;;;;;;;;;;;;;;;;
2023/04/23 12:15:31;;;;;;;;;;;;;;;25.32;28.05;97768.69;104210;1318;125585;-87
2023/04/23 12:18:58;;;;;;;;;;;;;;;25.16;27.16;97778.77;104364;1312;22607;-86
2023/04/23 12:22:31;;;;;;;;;;;;;;;24.74;26.92;97777.42;104763;1298;22656;-89
2023/04/23 12:25:54;;;;;;;;;;;;;;;24.64;27.69;97775.61;104487;1314;123471;-87
2023/04/23 12:29:13;;;;;;;;;;;;;;;24.85;25.90;97768.48;105175;1309;22539;-86
2023/04/23 12:32:32;;;;;;;;;;;;;;;24.87;27.04;97770.60;104233;1299;123681;-88
2023/04/23 12:35:21;;;;;;;;;;;;;;;;;;;;;
2023/04/23 12:39:12;;;;;;;;;;;;;;;25.48;25.97;97764.30;104274;1314;123833;-88
2023/04/23 12:42:06;;;;;;;;;;;;;;;;;;;;;
2023/04/23 12:45:51;;;;;;;;;;;;;;;25.04;26.45;97758.40;104345;1309;123385;-86
2023/04/23 12:49:17;;;;;;;;;;;;;;;24.75;26.58;97750.55;104502;1317;22532;-86
2023/04/23 12:51:57;;;;;;;;;;;;;;;;;;;;;
2023/04/23 12:55:05;;;;;;;;;;;;;;;;;;;;;
2023/04/23 12:58:24;;;;;;;;;;;;;;;24.27;26.84;97745.36;104577;1308;22636;-87
2023/04/23 13:02:01;;;;;;;;;;;;;;;;;;;;;
2023/04/23 13:05:01;;;;;;;;;;;;;;;;;;;;;
2023/04/23 13:08:14;;;;;;;;;;;;;;;;;;;;;
2023/04/23 13:12:06;;;;;;;;;;;;;;;24.62;26.42;97730.40;106030;1281;23246;-90
2023/04/23 13:15:28;;;;;;;;;;;;;;;24.38;26.19;97727.77;105694;1300;123481;-88
2023/04/23 13:18:23;;;;;;;;;;;;;;;;;;;;;
2023/04/23 13:22:16;;;;;;;;;;;;;;;23.99;27.52;97718.81;106054;1298;123885;-89
2023/04/23 13:29:00;;;;;;;;;;;;;;;;;;;;;
2023/04/23 13:32:02;;;;;;;;;;;;;;;;;;;;;
2023/04/23 13:35:30;;;;;;;;;;;;;;;;;;;;;
2023/04/23 13:38:49;;;;;;;;;;;;;;;;;;;;;
2023/04/23 13:41:53;;;;;;;;;;;;;;;23.67;28.80;97707.77;105359;1290;22665;-87
2023/04/23 13:45:52;;;;;;;;;;;;;;;24.16;28.24;97702.91;105427;1306;123585;-88
2023/04/23 13:49:19;;;;;;;;;;;;;;;24.67;27.51;97693.05;105264;1302;22714;-87
2023/04/23 13:52:36;;;;;;;;;;;;;;;24.82;27.19;97686.75;104578;1293;22611;-85
2023/04/23 13:55:22;;;;;;;;;;;;;;;;;;;;;
2023/04/23 13:58:51;;;;;;;;;;;;;;;;;;;;;
2023/04/23 14:02:49;;;;;;;;;;;;;;;24.39;27.63;97680.82;105010;1302;123608;-87
2023/04/23 14:06:14;;;;;;;;;;;;;;;24.68;26.97;97678.29;105019;1306;22574;-87
2023/04/23 14:09:17;;;;;;;;;;;;;;;25.07;26.51;97671.25;105215;1305;123493;-88
2023/04/23 14:13:27;;;;;;;;;;;;;;;25.45;26.16;97663.25;103955;1298;544385;-87
2023/04/23 14:16:41;;;;;;;;;;;;;;;25.61;25.63;97664.48;106776;1292;22535;-87
2023/04/23 14:19:36;;;;;;;;;;;;;;;;;;;;;
2023/04/23 14:22:57;;;;;;;;;;;;;;;;;;;;;
2023/04/23 14:26:03;;;;;;;;;;;;;;;25.63;24.91;97657.66;102023;1299;5480994;-88
2023/04/23 14:29:45;;;;;;;;;;;;;;;25.49;24.63;97657.52;106273;1293;22627;-87
2023/04/23 14:32:23;;;;;;;;;;;;;;;;;;;;;
2023/04/23 14:36:15;;;;;;;;;;;;;;;25.03;25.73;97657.52;105303;1306;22550;-86
2023/04/23 14:39:01;;;;;;;;;;;;;;;;;;;;;
2023/04/23 14:42:40;;;;;;;;;;;;;;;25.07;26.20;97654.59;104726;1289;22551;-88
2023/04/23 14:45:34;;;;;;;;;;;;;;;;;;;;;
2023/04/23 14:48:38;;;;;;;;;;;;;;;;;;;;;
2023/04/23 14:52:16;;;;;;;;;;;;;;;25.23;26.21;97647.81;105478;1298;123462;-87
2023/04/23 14:55:35;;;;;;;;;;;;;;;25.51;25.83;97645.29;105795;1285;22568;-88
2023/04/23 14:58:57;;;;;;;;;;;;;;;25.60;25.55;97648.84;105881;1299;24881;-87
2023/04/23 15:01:44;;;;;;;;;;;;;;;;;;;;;
2023/04/23 15:05:30;;;;;;;;;;;;;;;25.89;24.78;97652.01;105274;1292;22536;-85
2023/04/23 15:08:07;;;;;;;;;;;;;;;25.71;24.54;97649.55;104655;1312;123742;-89
2023/04/23 15:11:47;;;;;;;;;;;;;;;;;;;;;
2023/04/23 15:15:52;;;;;;;;;;;;;;;25.39;24.60;97645.27;104222;1299;546281;-86
2023/04/23 15:18:52;;;;;;;;;;;;;;;;;;;;;
2023/04/23 15:22:23;;;;;;;;;;;;;;;;;;;;;
2023/04/23 15:25:53;;;;;;;;;;;;;;;24.69;24.86;97643.48;105445;1284;22589;-87
2023/04/23 15:29:20;;;;;;;;;;;;;;;24.49;25.22;97638.45;101693;1304;5467443;-86
2023/04/23 15:32:45;;;;;;;;;;;;;;;24.54;24.87;97632.71;105019;1310;124282;-86
2023/04/23 15:36:14;;;;;;;;;;;;;;;24.62;24.91;97630.56;105383;1290;22537;-86
2023/04/23 15:39:34;;;;;;;;;;;;;;;24.49;24.80;97623.11;104916;1309;123061;-86
2023/04/23 15:42:23;;;;;;;;;;;;;;;;;;;;;
2023/04/23 15:46:05;;;;;;;;;;;;;;;24.12;26.28;97620.05;105104;1293;123057;-86
2023/04/23 15:49:32;;;;;;;;;;;;;;;24.17;26.57;97623.87;105048;1310;22657;-87
2023/04/23 15:52:46;;;;;;;;;;;;;;;;;;;;;
2023/04/23 15:56:22;;;;;;;;;;;;;;;24.02;25.90;97615.89;105571;1289;22569;-87
2023/04/23 15:59:48;;;;;;;;;;;;;;;23.93;25.79;97615.79;104973;1312;26506;-87
2023/04/23 16:02:52;;;;;;;;;;;;;;;23.82;25.63;97613.02;105441;1302;123974;-88
2023/04/23 16:06:40;;;;;;;;;;;;;;;23.60;25.62;97614.67;104839;1311;22681;-88
2023/04/23 16:09:39;;;;;;;;;;;;;;;;;;;;;
2023/04/23 16:12:47;;;;;;;;;;;;;;;;;;;;;
2023/04/23 16:15:51;;;;;;;;;;;;;;;;;;;;;
2023/04/23 16:19:43;;;;;;;;;;;;;;;23.10;28.36;97604.02;104605;1314;22549;-86
2023/04/23 16:23:01;;;;;;;;;;;;;;;23.01;27.87;97604.71;104253;1320;124766;-87
2023/04/23 16:26:06;;;;;;;;;;;;;;;;;;;;;
2023/04/23 16:33:05;;;;;;;;;;;;;;;23.17;29.87;97593.52;103105;1329;124185;-87
2023/04/23 16:36:18;;;;;;;;;;;;;;;;;;;;;
2023/04/23 16:39:48;;;;;;;;;;;;;;;23.81;29.57;97592.27;103816;1321;123314;-87
2023/04/23 16:42:34;;;;;;;;;;;;;;;24.12;28.64;97593.10;104230;1308;22616;-87
2023/04/23 16:46:18;;;;;;;;;;;;;;;24.33;27.69;97589.54;104350;1305;123318;-86
2023/04/23 16:49:29;;;;;;;;;;;;;;;;;;;;;
2023/04/23 16:53:09;;;;;;;;;;;;;;;23.97;27.18;97584.67;104695;1311;123103;-86
2023/04/23 16:56:26;;;;;;;;;;;;;;;23.64;27.38;97588.41;106955;1290;22455;-87
2023/04/23 16:59:44;;;;;;;;;;;;;;;23.33;27.08;97584.31;106687;1309;22567;-87
2023/04/23 17:02:56;;;;;;;;;;;;;;;;;;;;;
2023/04/23 17:06:36;;;;;;;;;;;;;;;22.67;28.25;97589.68;106753;1313;22689;-87
2023/04/23 17:10:05;;;;;;;;;;;;;;;22.33;28.86;97589.73;104340;1314;123999;-87
2023/04/23 17:13:32;;;;;;;;;;;;;;;22.00;29.28;97590.93;104401;1315;22580;-88
2023/04/23 17:16:37;;;;;;;;;;;;;;;;;;;;;
2023/04/23 17:20:16;;;;;;;;;;;;;;;21.56;31.06;97593.39;103939;1305;22553;-87
2023/04/23 17:23:43;;;;;;;;;;;;;;;21.36;31.80;97587.40;103937;1322;22582;-86
2023/04/23 17:26:55;;;;;;;;;;;;;;;;;;;;;
2023/04/23 17:33:54;;;;;;;;;;;;;;;;;;;;;
2023/04/23 17:37:25;;;;;;;;;;;;;;;;;;;;;
2023/04/23 17:41:08;;;;;;;;;;;;;;;19.98;33.68;97585.45;105726;1304;124432;-86
2023/04/23 17:44:32;;;;;;;;;;;;;;;19.76;32.84;97584.56;106042;1283;23161;-89
2023/04/23 17:47:13;;;;;;;;;;;;;;;;;;;;;
2023/04/23 17:51:00;;;;;;;;;;;;;;;19.40;33.11;97590.77;106547;1295;123581;-87
2023/04/23 17:54:14;;;;;;;;;;;;;;;;;;;;;
2023/04/23 17:57:23;;;;;;;;;;;;;;;19.09;33.10;97593.69;106437;1297;123358;-87
2023/04/23 18:00:37;;;;;;;;;;;;;;;;;;;;;
2023/04/23 18:03:50;;;;;;;;;;;;;;;;;;;;;
2023/04/23 18:07:21;;;;;;;;;;;;;;;;;;;;;
2023/04/23 18:10:50;;;;;;;;;;;;;;;;;;;;;
2023/04/23 18:14:26;;;;;;;;;;;;;;;18.50;34.97;97604.24;106426;1279;22817;-86
2023/04/23 18:17:19;;;;;;;;;;;;;;;;;;;;;
2023/04/23 18:20:51;;;;;;;;;;;;;;;18.26;35.25;97610.48;106682;1296;22536;-90
2023/04/23 18:24:18;;;;;;;;;;;;;;;18.15;35.64;97608.75;106410;1281;24227;-88
2023/04/23 18:27:46;;;;;;;;;;;;;;;18.04;36.05;97611.26;105267;1305;123791;-88
2023/04/23 18:30:25;;;;;;;;;;;;;;;;;;;;;
2023/04/23 18:33:49;;;;;;;;;;;;;;;;;;;;;
2023/04/23 18:37:46;;;;;;;;;;;;;;;17.72;36.85;97614.67;105078;1308;22694;-85
2023/04/23 18:40:58;;;;;;;;;;;;;;;;;;;;;
2023/04/23 18:44:24;;;;;;;;;;;;;;;;;;;;;
2023/04/23 18:47:58;;;;;;;;;;;;;;;17.39;38.72;97613.45;104820;1311;22563;-85
2023/04/23 18:51:35;;;;;;;;;;;;;;;17.30;38.84;97616.45;104916;1304;124041;-85
2023/04/23 18:55:00;;;;;;;;;;;;;;;17.21;38.81;97615.67;104690;1315;25390;-85
2023/04/23 18:57:57;;;;;;;;;;;;;;;;;;;;;
2023/04/23 19:01:39;;;;;;;;;;;;;;;17.05;38.85;97614.15;105021;1305;22561;-87
2023/04/23 19:04:29;;;;;;;;;;;;;;;;;;;;;
2023/04/23 19:07:47;;;;;;;;;;;;;;;;;;;;;
2023/04/23 19:18:23;;;;;;;;;;;;;;;16.49;45.66;97619.54;105833;1308;22594;-85
2023/04/23 19:21:50;;;;;;;;;;;;;;;16.39;44.14;97620.55;104496;1314;123598;-86
2023/04/23 19:24:33;;;;;;;;;;;;;;;16.34;43.51;97617.58;104730;1308;22626;-88
2023/04/23 19:28:24;;;;;;;;;;;;;;;16.31;42.80;97615.20;104724;1308;123434;-86
2023/04/23 19:31:51;;;;;;;;;;;;;;;16.30;42.41;97616.55;104792;1305;22593;-87
2023/04/23 19:34:37;;;;;;;;;;;;;;;;;;;;;
2023/04/23 19:38:29;;;;;;;;;;;;;;;16.27;42.42;97614.56;104964;1295;22566;-85
2023/04/23 19:41:48;;;;;;;;;;;;;;;16.23;42.81;97618.60;104542;1316;22615;-91
2023/04/23 19:44:48;;;;;;;;;;;;;;;;;;;;;
2023/04/23 19:48:43;;;;;;;;;;;;;;;16.13;42.52;97608.34;104584;1297;24283;-85
2023/04/23 19:52:02;;;;;;;;;;;;;;;16.08;42.08;97605.08;104474;1308;123704;-86
2023/04/23 19:55:29;;;;;;;;;;;;;;;16.05;42.34;97606.55;105149;1302;22536;-90
2023/04/23 19:58:17;;;;;;;;;;;;;;;;;;;;;
2023/04/23 20:01:46;;;;;;;;;;;;;;;;;;;;;
2023/04/23 20:05:15;;;;;;;;;;;;;;;15.95;42.80;97607.83;104958;1304;123667;-86
2023/04/23 20:09:05;;;;;;;;;;;;;;;15.91;43.07;97609.16;105401;1291;25348;-88
2023/04/23 20:11:41;;;;;;;;;;;;;;;;;;;;;
2023/04/23 20:14:56;;;;;;;;;;;;;;;;;;;;;
2023/04/23 20:18:33;;;;;;;;;;;;;;;15.75;43.41;97601.40;105617;1288;22557;-86
2023/04/23 20:21:54;;;;;;;;;;;;;;;15.69;43.49;97599.77;105529;1298;124414;-85
2023/04/23 20:25:22;;;;;;;;;;;;;;;15.63;43.73;97597.35;105200;1299;24297;-88
2023/04/23 20:28:39;;;;;;;;;;;;;;;15.54;43.88;97600.28;105677;1288;123482;-87
2023/04/23 20:35:08;;;;;;;;;;;;;;;15.40;44.32;97604.55;104875;1304;123522;-86
2023/04/23 20:39:04;;;;;;;;;;;;;;;15.30;45.06;97603.02;104816;1294;25261;-85
2023/04/23 20:42:07;;;;;;;;;;;;;;;;;;;;;
2023/04/23 20:45:24;;;;;;;;;;;;;;;;;;;;;
2023/04/23 20:49:17;;;;;;;;;;;;;;;14.99;45.23;97607.89;104189;1304;22572;-85
2023/04/23 20:52:12;;;;;;;;;;;;;;;;;;;;;
2023/04/23 21:00:10;;;;;;;;;;;;;;;14.82;46.37;97613.97;103505;1306;544924;-88
2023/04/23 21:03:35;;;;;;;;;;;;;;;14.72;46.75;97614.38;106059;1297;22649;-84
2023/04/23 21:07:01;;;;;;;;;;;;;;;14.64;47.19;97611.84;105343;1303;22578;-85
2023/04/23 21:10:27;;;;;;;;;;;;;;;14.57;47.10;97612.23;104973;1287;123508;-88
2023/04/23 21:13:22;;;;;;;;;;;;;;;;;;;;;
2023/04/23 21:23:40;;;;;;;;;;;;;;;;;;;;;
2023/04/23 21:41:52;;;;;;;;;;;;;;;;;;;;;
2023/04/23 21:56:31;;;;;;;;;;;;;;;13.31;53.51;97608.38;104882;1310;23897;-90
2023/04/23 22:10:06;;;;;;;;;;;;;;;;;;;;;
2023/04/23 22:24:41;;;;;;;;;;;;;;;12.88;53.19;97609.48;103997;1319;22556;-88
2023/04/23 22:31:08;;;;;;;;;;;;;;;;;;;;;
2023/04/23 22:38:54;;;;;;;;;;;;;;;12.73;53.70;97600.63;103701;1305;546944;-86
2023/04/23 22:42:06;;;;;;;;;;;;;;;;;;;;;
2023/04/23 22:45:50;;;;;;;;;;;;;;;12.62;53.94;97600.41;104771;1313;22581;-86
2023/04/23 22:49:17;;;;;;;;;;;;;;;12.58;53.93;97596.55;104316;1294;22580;-88
2023/04/23 22:52:43;;;;;;;;;;;;;;;12.53;53.91;97597.05;100394;1319;5434320;-90
2023/04/23 23:10:32;;;;;;;;;;;;;;;12.37;53.78;97579.52;103985;1320;123112;-87
2023/04/23 23:13:59;;;;;;;;;;;;;;;12.35;53.93;97576.77;103189;1330;22730;-86
2023/04/23 23:24:52;;;;;;;;;;;;;;;12.19;54.58;97575.66;105917;1295;124522;-88
2023/04/23 23:28:21;;;;;;;;;;;;;;;12.10;54.97;97575.58;105252;1302;22703;-87
2023/04/23 23:35:16;;;;;;;;;;;;;;;11.91;55.81;97578.27;99858;1321;5436994;-86
2023/04/23 23:49:36;;;;;;;;;;;;;;;11.65;56.11;97585.31;103831;1305;544698;-88
2023/04/23 23:52:49;;;;;;;;;;;;;;;11.55;56.75;97582.27;105385;1304;123191;-84
2023/04/23 23:55:45;;;;;;;;;;;;;;;;;;;;;
